sensor_id;sensor_type;location;lat;lon;timestamp;temperature;humidity
8463;DHT22;4268;52.506;13.462;2023-05-10T00:00:12;12.60;81.80
8463;DHT22;4268;52.506;13.462;2023-05-10T00:02:37;12.50;82.00
8463;DHT22;4268;52.506;13.462;2023-05-10T00:05:04;12.50;82.10
8463;DHT22;4268;52.506;13.462;2023-05-10T00:07:30;12.50;82.30
8463;DHT22;4268;52.506;13.462;2023-05-10T00:09:55;12.50;82.70
8463;DHT22;4268;52.506;13.462;2023-05-10T00:12:21;12.40;82.70
8463;DHT22;4268;52.506;13.462;2023-05-10T00:14:46;12.40;82.70
8463;DHT22;4268;52.506;13.462;2023-05-10T00:17:12;12.40;83.00
8463;DHT22;4268;52.506;13.462;2023-05-10T00:19:37;12.30;83.10
8463;DHT22;4268;52.506;13.462;2023-05-10T00:22:03;12.30;83.30
8463;DHT22;4268;52.506;13.462;2023-05-10T00:24:28;12.30;83.60
8463;DHT22;4268;52.506;13.462;2023-05-10T00:26:54;12.20;83.70
8463;DHT22;4268;52.506;13.462;2023-05-10T00:29:19;12.20;83.80
8463;DHT22;4268;52.506;13.462;2023-05-10T00:31:45;12.10;83.70
8463;DHT22;4268;52.506;13.462;2023-05-10T00:34:10;12.10;84.00
8463;DHT22;4268;52.506;13.462;2023-05-10T00:36:36;12.10;84.10
8463;DHT22;4268;52.506;13.462;2023-05-10T00:39:01;12.00;84.30
8463;DHT22;4268;52.506;13.462;2023-05-10T00:41:29;12.00;84.50
8463;DHT22;4268;52.506;13.462;2023-05-10T00:43:54;11.90;84.70
8463;DHT22;4268;52.506;13.462;2023-05-10T00:46:20;11.90;85.10
8463;DHT22;4268;52.506;13.462;2023-05-10T00:48:46;11.80;85.20
8463;DHT22;4268;52.506;13.462;2023-05-10T00:51:13;11.80;85.50
8463;DHT22;4268;52.506;13.462;2023-05-10T00:53:38;11.70;85.90
8463;DHT22;4268;52.506;13.462;2023-05-10T00:56:04;11.70;86.90
8463;DHT22;4268;52.506;13.462;2023-05-10T00:58:31;11.60;86.50
8463;DHT22;4268;52.506;13.462;2023-05-10T01:00:56;11.50;86.90
8463;DHT22;4268;52.506;13.462;2023-05-10T01:03:23;11.50;86.90
8463;DHT22;4268;52.506;13.462;2023-05-10T01:05:48;11.40;87.30
8463;DHT22;4268;52.506;13.462;2023-05-10T01:08:15;11.40;87.70
8463;DHT22;4268;52.506;13.462;2023-05-10T01:10:41;11.30;88.00
8463;DHT22;4268;52.506;13.462;2023-05-10T01:13:07;11.30;88.30
8463;DHT22;4268;52.506;13.462;2023-05-10T01:15:32;11.20;88.60
8463;DHT22;4268;52.506;13.462;2023-05-10T01:17:58;11.20;88.90
8463;DHT22;4268;52.506;13.462;2023-05-10T01:20:24;11.20;89.10
8463;DHT22;4268;52.506;13.462;2023-05-10T01:23:22;11.10;89.40
8463;DHT22;4268;52.506;13.462;2023-05-10T01:26:39;11.10;89.80
8463;DHT22;4268;52.506;13.462;2023-05-10T01:29:13;11.00;90.10
8463;DHT22;4268;52.506;13.462;2023-05-10T01:37:52;10.90;90.50
8463;DHT22;4268;52.506;13.462;2023-05-10T01:40:29;10.80;90.80
8463;DHT22;4268;52.506;13.462;2023-05-10T01:43:02;10.80;91.00
8463;DHT22;4268;52.506;13.462;2023-05-10T01:45:37;10.80;91.10
8463;DHT22;4268;52.506;13.462;2023-05-10T01:48:09;10.70;91.20
8463;DHT22;4268;52.506;13.462;2023-05-10T01:50:39;10.70;91.20
8463;DHT22;4268;52.506;13.462;2023-05-10T01:53:08;10.70;91.40
8463;DHT22;4268;52.506;13.462;2023-05-10T01:55:43;10.70;91.50
8463;DHT22;4268;52.506;13.462;2023-05-10T01:58:13;10.60;91.90
8463;DHT22;4268;52.506;13.462;2023-05-10T02:00:42;10.60;91.70
8463;DHT22;4268;52.506;13.462;2023-05-10T02:03:09;10.60;91.80
8463;DHT22;4268;52.506;13.462;2023-05-10T02:05:36;10.60;91.90
8463;DHT22;4268;52.506;13.462;2023-05-10T02:08:05;10.60;91.90
8463;DHT22;4268;52.506;13.462;2023-05-10T02:10:35;10.50;92.00
8463;DHT22;4268;52.506;13.462;2023-05-10T02:13:02;10.60;92.20
8463;DHT22;4268;52.506;13.462;2023-05-10T02:15:28;10.50;92.20
8463;DHT22;4268;52.506;13.462;2023-05-10T02:17:55;10.50;92.30
8463;DHT22;4268;52.506;13.462;2023-05-10T02:20:22;12.00;93.10
8463;DHT22;4268;52.506;13.462;2023-05-10T02:22:53;10.50;92.40
8463;DHT22;4268;52.506;13.462;2023-05-10T02:25:20;10.40;92.40
8463;DHT22;4268;52.506;13.462;2023-05-10T02:27:47;10.50;92.60
8463;DHT22;4268;52.506;13.462;2023-05-10T02:30:13;10.40;92.50
8463;DHT22;4268;52.506;13.462;2023-05-10T02:32:40;10.40;92.50
8463;DHT22;4268;52.506;13.462;2023-05-10T02:35:07;10.40;92.50
8463;DHT22;4268;52.506;13.462;2023-05-10T02:37:34;10.40;92.60
8463;DHT22;4268;52.506;13.462;2023-05-10T02:40:01;10.40;92.70
8463;DHT22;4268;52.506;13.462;2023-05-10T02:42:29;10.40;92.80
8463;DHT22;4268;52.506;13.462;2023-05-10T02:45:09;11.30;93.30
8463;DHT22;4268;52.506;13.462;2023-05-10T02:47:36;10.30;92.90
8463;DHT22;4268;52.506;13.462;2023-05-10T02:50:02;10.30;93.00
8463;DHT22;4268;52.506;13.462;2023-05-10T02:52:30;10.30;93.10
8463;DHT22;4268;52.506;13.462;2023-05-10T02:55:02;10.20;93.10
8463;DHT22;4268;52.506;13.462;2023-05-10T02:57:33;10.20;93.20
8463;DHT22;4268;52.506;13.462;2023-05-10T03:00:00;10.20;93.30
8463;DHT22;4268;52.506;13.462;2023-05-10T03:02:26;10.20;93.40
8463;DHT22;4268;52.506;13.462;2023-05-10T03:04:52;10.10;93.50
8463;DHT22;4268;52.506;13.462;2023-05-10T03:07:17;10.10;93.50
8463;DHT22;4268;52.506;13.462;2023-05-10T03:09:47;10.10;93.60
8463;DHT22;4268;52.506;13.462;2023-05-10T03:12:31;10.10;93.70
8463;DHT22;4268;52.506;13.462;2023-05-10T03:18:01;10.00;93.80
8463;DHT22;4268;52.506;13.462;2023-05-10T03:20:35;10.00;93.90
8463;DHT22;4268;52.506;13.462;2023-05-10T03:23:19;9.90;94.40
8463;DHT22;4268;52.506;13.462;2023-05-10T03:25:48;10.00;94.00
8463;DHT22;4268;52.506;13.462;2023-05-10T03:28:16;9.90;94.60
8463;DHT22;4268;52.506;13.462;2023-05-10T03:30:43;9.90;94.60
8463;DHT22;4268;52.506;13.462;2023-05-10T03:33:09;9.90;94.70
8463;DHT22;4268;52.506;13.462;2023-05-10T03:35:36;9.90;94.70
8463;DHT22;4268;52.506;13.462;2023-05-10T03:38:01;9.90;94.80
8463;DHT22;4268;52.506;13.462;2023-05-10T03:40:27;9.90;94.80
8463;DHT22;4268;52.506;13.462;2023-05-10T03:42:58;9.90;94.80
8463;DHT22;4268;52.506;13.462;2023-05-10T03:45:24;9.90;94.80
8463;DHT22;4268;52.506;13.462;2023-05-10T03:47:49;9.80;94.90
8463;DHT22;4268;52.506;13.462;2023-05-10T03:50:15;9.80;94.90
8463;DHT22;4268;52.506;13.462;2023-05-10T03:52:40;9.90;94.90
8463;DHT22;4268;52.506;13.462;2023-05-10T03:55:06;9.90;94.80
8463;DHT22;4268;52.506;13.462;2023-05-10T03:57:32;9.90;94.90
8463;DHT22;4268;52.506;13.462;2023-05-10T03:59:57;9.90;94.90
8463;DHT22;4268;52.506;13.462;2023-05-10T04:02:23;9.90;94.80
8463;DHT22;4268;52.506;13.462;2023-05-10T04:04:48;9.90;94.80
8463;DHT22;4268;52.506;13.462;2023-05-10T04:07:14;9.90;94.80
8463;DHT22;4268;52.506;13.462;2023-05-10T04:09:39;10.00;94.20
8463;DHT22;4268;52.506;13.462;2023-05-10T04:12:05;10.00;94.10
8463;DHT22;4268;52.506;13.462;2023-05-10T04:14:31;10.00;94.00
8463;DHT22;4268;52.506;13.462;2023-05-10T04:16:56;10.10;94.00
8463;DHT22;4268;52.506;13.462;2023-05-10T04:19:22;10.10;94.00
8463;DHT22;4268;52.506;13.462;2023-05-10T04:21:47;10.20;93.90
8463;DHT22;4268;52.506;13.462;2023-05-10T04:24:13;10.20;93.80
8463;DHT22;4268;52.506;13.462;2023-05-10T04:26:38;10.20;93.70
8463;DHT22;4268;52.506;13.462;2023-05-10T04:29:04;10.20;93.50
8463;DHT22;4268;52.506;13.462;2023-05-10T04:31:29;10.30;93.60
8463;DHT22;4268;52.506;13.462;2023-05-10T04:33:55;10.30;93.50
8463;DHT22;4268;52.506;13.462;2023-05-10T04:36:20;10.40;93.40
8463;DHT22;4268;52.506;13.462;2023-05-10T04:38:46;10.50;93.30
8463;DHT22;4268;52.506;13.462;2023-05-10T04:41:11;10.50;93.30
8463;DHT22;4268;52.506;13.462;2023-05-10T04:43:37;10.50;93.20
8463;DHT22;4268;52.506;13.462;2023-05-10T04:46:04;10.60;93.20
8463;DHT22;4268;52.506;13.462;2023-05-10T04:48:30;10.60;93.10
8463;DHT22;4268;52.506;13.462;2023-05-10T04:50:55;10.70;93.10
8463;DHT22;4268;52.506;13.462;2023-05-10T04:53:21;10.70;92.90
8463;DHT22;4268;52.506;13.462;2023-05-10T04:55:47;10.80;92.80
8463;DHT22;4268;52.506;13.462;2023-05-10T04:58:13;10.90;92.80
8463;DHT22;4268;52.506;13.462;2023-05-10T05:00:38;10.90;92.80
8463;DHT22;4268;52.506;13.462;2023-05-10T05:03:04;11.00;92.80
8463;DHT22;4268;52.506;13.462;2023-05-10T05:05:30;11.10;92.80
8463;DHT22;4268;52.506;13.462;2023-05-10T05:07:56;11.20;92.60
8463;DHT22;4268;52.506;13.462;2023-05-10T05:10:21;11.20;92.60
8463;DHT22;4268;52.506;13.462;2023-05-10T05:12:46;11.30;92.50
8463;DHT22;4268;52.506;13.462;2023-05-10T05:15:12;11.40;92.30
8463;DHT22;4268;52.506;13.462;2023-05-10T05:17:37;11.50;92.30
8463;DHT22;4268;52.506;13.462;2023-05-10T05:20:03;11.50;92.50
8463;DHT22;4268;52.506;13.462;2023-05-10T05:22:29;11.60;92.20
8463;DHT22;4268;52.506;13.462;2023-05-10T05:24:55;11.70;92.20
8463;DHT22;4268;52.506;13.462;2023-05-10T05:27:21;11.70;91.90
8463;DHT22;4268;52.506;13.462;2023-05-10T05:29:53;11.90;91.70
8463;DHT22;4268;52.506;13.462;2023-05-10T05:32:18;12.00;91.70
8463;DHT22;4268;52.506;13.462;2023-05-10T05:34:45;12.00;91.50
8463;DHT22;4268;52.506;13.462;2023-05-10T05:37:18;12.10;91.40
8463;DHT22;4268;52.506;13.462;2023-05-10T05:39:45;12.20;91.30
8463;DHT22;4268;52.506;13.462;2023-05-10T05:42:11;12.30;91.20
8463;DHT22;4268;52.506;13.462;2023-05-10T05:44:38;12.40;91.10
8463;DHT22;4268;52.506;13.462;2023-05-10T05:47:03;12.50;91.00
8463;DHT22;4268;52.506;13.462;2023-05-10T05:49:29;12.60;90.80
8463;DHT22;4268;52.506;13.462;2023-05-10T05:51:58;12.70;90.70
8463;DHT22;4268;52.506;13.462;2023-05-10T05:54:23;12.80;90.70
8463;DHT22;4268;52.506;13.462;2023-05-10T05:56:48;12.90;90.50
8463;DHT22;4268;52.506;13.462;2023-05-10T05:59:14;13.00;90.40
8463;DHT22;4268;52.506;13.462;2023-05-10T06:01:39;13.00;90.10
8463;DHT22;4268;52.506;13.462;2023-05-10T06:04:05;13.20;90.20
8463;DHT22;4268;52.506;13.462;2023-05-10T06:06:30;13.30;90.00
8463;DHT22;4268;52.506;13.462;2023-05-10T06:08:57;13.50;89.90
8463;DHT22;4268;52.506;13.462;2023-05-10T06:11:22;13.70;88.20
8463;DHT22;4268;52.506;13.462;2023-05-10T06:13:49;13.90;88.10
8463;DHT22;4268;52.506;13.462;2023-05-10T06:16:14;14.70;87.50
8463;DHT22;4268;52.506;13.462;2023-05-10T06:18:40;16.20;84.50
8463;DHT22;4268;52.506;13.462;2023-05-10T06:21:05;18.00;79.70
8463;DHT22;4268;52.506;13.462;2023-05-10T06:23:31;19.80;74.60
8463;DHT22;4268;52.506;13.462;2023-05-10T06:25:56;21.00;70.40
8463;DHT22;4268;52.506;13.462;2023-05-10T06:28:22;21.50;66.50
8463;DHT22;4268;52.506;13.462;2023-05-10T06:30:47;22.40;65.60
8463;DHT22;4268;52.506;13.462;2023-05-10T06:33:13;23.30;61.80
8463;DHT22;4268;52.506;13.462;2023-05-10T06:35:39;23.50;60.60
8463;DHT22;4268;52.506;13.462;2023-05-10T06:38:04;24.10;59.20
8463;DHT22;4268;52.506;13.462;2023-05-10T06:40:30;24.50;57.90
8463;DHT22;4268;52.506;13.462;2023-05-10T06:42:55;24.80;57.40
8463;DHT22;4268;52.506;13.462;2023-05-10T06:45:21;24.80;56.50
8463;DHT22;4268;52.506;13.462;2023-05-10T06:47:46;24.80;56.60
8463;DHT22;4268;52.506;13.462;2023-05-10T06:50:12;24.60;56.40
8463;DHT22;4268;52.506;13.462;2023-05-10T06:52:37;24.30;56.70
8463;DHT22;4268;52.506;13.462;2023-05-10T06:55:04;25.00;56.40
8463;DHT22;4268;52.506;13.462;2023-05-10T06:57:30;25.90;55.50
8463;DHT22;4268;52.506;13.462;2023-05-10T06:59:56;26.10;54.90
8463;DHT22;4268;52.506;13.462;2023-05-10T07:02:22;26.10;53.60
8463;DHT22;4268;52.506;13.462;2023-05-10T07:04:48;25.60;54.00
8463;DHT22;4268;52.506;13.462;2023-05-10T07:07:14;24.70;55.00
8463;DHT22;4268;52.506;13.462;2023-05-10T07:09:39;23.90;55.80
8463;DHT22;4268;52.506;13.462;2023-05-10T07:12:05;22.90;57.30
8463;DHT22;4268;52.506;13.462;2023-05-10T07:14:31;22.30;58.80
8463;DHT22;4268;52.506;13.462;2023-05-10T07:16:57;21.40;59.90
8463;DHT22;4268;52.506;13.462;2023-05-10T07:19:23;21.20;60.80
8463;DHT22;4268;52.506;13.462;2023-05-10T07:21:49;21.20;61.40
8463;DHT22;4268;52.506;13.462;2023-05-10T07:24:14;21.00;61.70
8463;DHT22;4268;52.506;13.462;2023-05-10T07:26:39;20.90;61.90
8463;DHT22;4268;52.506;13.462;2023-05-10T07:29:05;20.70;62.60
8463;DHT22;4268;52.506;13.462;2023-05-10T07:31:31;22.80;64.30
8463;DHT22;4268;52.506;13.462;2023-05-10T07:33:56;21.60;63.20
8463;DHT22;4268;52.506;13.462;2023-05-10T07:36:22;21.40;63.90
8463;DHT22;4268;52.506;13.462;2023-05-10T07:38:47;21.00;63.30
8463;DHT22;4268;52.506;13.462;2023-05-10T07:41:14;20.40;63.20
8463;DHT22;4268;52.506;13.462;2023-05-10T07:43:40;20.40;63.50
8463;DHT22;4268;52.506;13.462;2023-05-10T07:46:05;20.30;64.30
8463;DHT22;4268;52.506;13.462;2023-05-10T07:48:31;20.50;64.40
8463;DHT22;4268;52.506;13.462;2023-05-10T07:50:56;20.70;63.50
8463;DHT22;4268;52.506;13.462;2023-05-10T07:53:22;20.50;63.40
8463;DHT22;4268;52.506;13.462;2023-05-10T07:55:51;20.80;63.80
8463;DHT22;4268;52.506;13.462;2023-05-10T07:58:17;20.60;63.10
8463;DHT22;4268;52.506;13.462;2023-05-10T08:00:42;20.70;63.30
8463;DHT22;4268;52.506;13.462;2023-05-10T08:03:08;20.70;64.20
8463;DHT22;4268;52.506;13.462;2023-05-10T08:05:33;20.70;63.90
8463;DHT22;4268;52.506;13.462;2023-05-10T08:07:59;20.60;63.50
8463;DHT22;4268;52.506;13.462;2023-05-10T08:10:24;20.40;63.90
8463;DHT22;4268;52.506;13.462;2023-05-10T08:12:50;20.30;64.20
8463;DHT22;4268;52.506;13.462;2023-05-10T08:15:16;20.10;64.40
8463;DHT22;4268;52.506;13.462;2023-05-10T08:17:41;20.10;64.70
8463;DHT22;4268;52.506;13.462;2023-05-10T08:20:08;20.30;65.50
8463;DHT22;4268;52.506;13.462;2023-05-10T08:22:34;20.40;65.00
8463;DHT22;4268;52.506;13.462;2023-05-10T08:24:59;20.50;64.00
8463;DHT22;4268;52.506;13.462;2023-05-10T08:27:24;20.40;64.10
8463;DHT22;4268;52.506;13.462;2023-05-10T08:29:50;19.90;64.70
8463;DHT22;4268;52.506;13.462;2023-05-10T08:32:15;19.70;65.50
8463;DHT22;4268;52.506;13.462;2023-05-10T08:34:41;19.90;65.70
8463;DHT22;4268;52.506;13.462;2023-05-10T08:37:06;20.10;64.80
8463;DHT22;4268;52.506;13.462;2023-05-10T08:39:35;20.10;64.80
8463;DHT22;4268;52.506;13.462;2023-05-10T08:42:03;20.20;64.80
8463;DHT22;4268;52.506;13.462;2023-05-10T08:44:34;20.30;64.60
8463;DHT22;4268;52.506;13.462;2023-05-10T08:47:04;20.40;64.70
8463;DHT22;4268;52.506;13.462;2023-05-10T08:49:31;20.50;64.50
8463;DHT22;4268;52.506;13.462;2023-05-10T08:52:01;20.70;64.70
8463;DHT22;4268;52.506;13.462;2023-05-10T08:54:27;20.70;64.70
8463;DHT22;4268;52.506;13.462;2023-05-10T08:56:53;20.60;64.40
8463;DHT22;4268;52.506;13.462;2023-05-10T08:59:18;20.20;64.10
8463;DHT22;4268;52.506;13.462;2023-05-10T09:01:45;20.20;64.80
8463;DHT22;4268;52.506;13.462;2023-05-10T09:04:13;20.10;64.70
8463;DHT22;4268;52.506;13.462;2023-05-10T09:06:38;19.90;65.50
8463;DHT22;4268;52.506;13.462;2023-05-10T09:09:04;19.70;65.70
8463;DHT22;4268;52.506;13.462;2023-05-10T09:11:30;19.60;66.50
8463;DHT22;4268;52.506;13.462;2023-05-10T09:13:56;19.60;66.20
8463;DHT22;4268;52.506;13.462;2023-05-10T09:16:23;19.70;66.90
8463;DHT22;4268;52.506;13.462;2023-05-10T09:18:49;19.60;66.50
8463;DHT22;4268;52.506;13.462;2023-05-10T09:21:14;19.50;67.20
8463;DHT22;4268;52.506;13.462;2023-05-10T09:23:43;19.50;66.10
8463;DHT22;4268;52.506;13.462;2023-05-10T09:26:08;19.50;66.90
8463;DHT22;4268;52.506;13.462;2023-05-10T09:28:53;19.50;66.60
8463;DHT22;4268;52.506;13.462;2023-05-10T09:31:19;19.40;66.10
8463;DHT22;4268;52.506;13.462;2023-05-10T09:33:46;19.40;66.80
8463;DHT22;4268;52.506;13.462;2023-05-10T09:36:12;19.40;67.00
8463;DHT22;4268;52.506;13.462;2023-05-10T09:38:51;19.50;66.90
8463;DHT22;4268;52.506;13.462;2023-05-10T09:41:22;19.50;66.90
8463;DHT22;4268;52.506;13.462;2023-05-10T09:43:49;19.50;66.90
8463;DHT22;4268;52.506;13.462;2023-05-10T09:46:15;19.60;67.30
8463;DHT22;4268;52.506;13.462;2023-05-10T09:48:47;19.80;67.10
8463;DHT22;4268;52.506;13.462;2023-05-10T09:51:23;19.90;66.80
8463;DHT22;4268;52.506;13.462;2023-05-10T09:54:12;19.90;66.40
8463;DHT22;4268;52.506;13.462;2023-05-10T09:56:38;20.00;66.10
8463;DHT22;4268;52.506;13.462;2023-05-10T09:59:07;19.90;66.10
8463;DHT22;4268;52.506;13.462;2023-05-10T10:01:33;19.80;66.00
8463;DHT22;4268;52.506;13.462;2023-05-10T10:04:01;19.90;65.70
8463;DHT22;4268;52.506;13.462;2023-05-10T10:06:28;20.00;65.20
8463;DHT22;4268;52.506;13.462;2023-05-10T10:08:54;20.10;65.50
8463;DHT22;4268;52.506;13.462;2023-05-10T10:11:20;20.20;65.90
8463;DHT22;4268;52.506;13.462;2023-05-10T10:13:46;20.20;67.30
8463;DHT22;4268;52.506;13.462;2023-05-10T10:16:11;20.20;65.10
8463;DHT22;4268;52.506;13.462;2023-05-10T10:18:37;20.10;66.40
8463;DHT22;4268;52.506;13.462;2023-05-10T10:21:06;20.10;66.90
8463;DHT22;4268;52.506;13.462;2023-05-10T10:23:32;20.10;67.70
8463;DHT22;4268;52.506;13.462;2023-05-10T10:25:58;20.20;67.80
8463;DHT22;4268;52.506;13.462;2023-05-10T10:29:23;20.30;68.00
8463;DHT22;4268;52.506;13.462;2023-05-10T10:31:34;20.40;67.30
8463;DHT22;4268;52.506;13.462;2023-05-10T10:34:08;20.50;67.40
8463;DHT22;4268;52.506;13.462;2023-05-10T10:36:46;20.50;67.40
8463;DHT22;4268;52.506;13.462;2023-05-10T10:39:13;20.50;66.30
8463;DHT22;4268;52.506;13.462;2023-05-10T10:41:41;20.50;65.80
8463;DHT22;4268;52.506;13.462;2023-05-10T10:49:31;20.40;65.80
8463;DHT22;4268;52.506;13.462;2023-05-10T10:52:21;20.30;66.10
8463;DHT22;4268;52.506;13.462;2023-05-10T10:57:25;20.50;66.40
8463;DHT22;4268;52.506;13.462;2023-05-10T10:59:53;20.70;66.50
8463;DHT22;4268;52.506;13.462;2023-05-10T11:07:58;20.80;65.60
8463;DHT22;4268;52.506;13.462;2023-05-10T11:10:25;20.70;65.70
8463;DHT22;4268;52.506;13.462;2023-05-10T11:13:00;20.80;65.50
8463;DHT22;4268;52.506;13.462;2023-05-10T11:15:39;20.90;64.90
8463;DHT22;4268;52.506;13.462;2023-05-10T11:18:19;21.10;65.10
8463;DHT22;4268;52.506;13.462;2023-05-10T11:20:51;21.20;65.20
8463;DHT22;4268;52.506;13.462;2023-05-10T11:23:16;21.30;65.40
8463;DHT22;4268;52.506;13.462;2023-05-10T11:25:44;21.30;65.30
8463;DHT22;4268;52.506;13.462;2023-05-10T11:28:10;21.50;64.70
8463;DHT22;4268;52.506;13.462;2023-05-10T11:30:38;21.50;64.90
8463;DHT22;4268;52.506;13.462;2023-05-10T11:33:05;21.50;63.70
8463;DHT22;4268;52.506;13.462;2023-05-10T11:35:31;21.50;63.30
8463;DHT22;4268;52.506;13.462;2023-05-10T11:38:01;21.60;64.60
8463;DHT22;4268;52.506;13.462;2023-05-10T11:40:27;21.50;64.30
8463;DHT22;4268;52.506;13.462;2023-05-10T11:42:55;21.60;64.30
8463;DHT22;4268;52.506;13.462;2023-05-10T11:45:23;21.60;64.30
8463;DHT22;4268;52.506;13.462;2023-05-10T11:47:49;21.60;65.20
8463;DHT22;4268;52.506;13.462;2023-05-10T11:50:15;21.60;64.80
8463;DHT22;4268;52.506;13.462;2023-05-10T11:52:40;21.70;63.20
8463;DHT22;4268;52.506;13.462;2023-05-10T11:55:06;21.70;62.20
8463;DHT22;4268;52.506;13.462;2023-05-10T11:57:32;21.70;61.80
8463;DHT22;4268;52.506;13.462;2023-05-10T11:59:58;21.70;61.80
8463;DHT22;4268;52.506;13.462;2023-05-10T12:02:23;21.70;62.10
8463;DHT22;4268;52.506;13.462;2023-05-10T12:04:50;21.90;63.00
8463;DHT22;4268;52.506;13.462;2023-05-10T12:07:16;21.90;62.90
8463;DHT22;4268;52.506;13.462;2023-05-10T12:10:05;21.90;62.60
8463;DHT22;4268;52.506;13.462;2023-05-10T12:12:45;21.90;61.10
8463;DHT22;4268;52.506;13.462;2023-05-10T12:15:18;21.90;60.60
8463;DHT22;4268;52.506;13.462;2023-05-10T12:17:45;22.00;61.70
8463;DHT22;4268;52.506;13.462;2023-05-10T12:20:19;22.20;61.90
8463;DHT22;4268;52.506;13.462;2023-05-10T12:22:50;22.20;60.60
8463;DHT22;4268;52.506;13.462;2023-05-10T12:25:16;22.30;60.30
8463;DHT22;4268;52.506;13.462;2023-05-10T12:27:53;22.40;59.90
8463;DHT22;4268;52.506;13.462;2023-05-10T12:30:24;22.40;59.00
8463;DHT22;4268;52.506;13.462;2023-05-10T12:32:51;22.30;58.80
8463;DHT22;4268;52.506;13.462;2023-05-10T12:35:17;22.20;59.00
8463;DHT22;4268;52.506;13.462;2023-05-10T12:37:45;22.20;59.30
8463;DHT22;4268;52.506;13.462;2023-05-10T12:40:11;22.20;60.00
8463;DHT22;4268;52.506;13.462;2023-05-10T12:42:38;22.20;60.60
8463;DHT22;4268;52.506;13.462;2023-05-10T12:45:04;22.20;60.00
8463;DHT22;4268;52.506;13.462;2023-05-10T12:47:31;22.30;60.50
8463;DHT22;4268;52.506;13.462;2023-05-10T12:49:57;22.20;60.30
8463;DHT22;4268;52.506;13.462;2023-05-10T12:52:23;22.30;60.30
8463;DHT22;4268;52.506;13.462;2023-05-10T12:54:49;22.50;58.90
8463;DHT22;4268;52.506;13.462;2023-05-10T12:57:15;22.50;58.80
8463;DHT22;4268;52.506;13.462;2023-05-10T12:59:40;22.40;58.60
8463;DHT22;4268;52.506;13.462;2023-05-10T13:02:06;22.40;59.30
8463;DHT22;4268;52.506;13.462;2023-05-10T13:04:32;22.40;59.60
8463;DHT22;4268;52.506;13.462;2023-05-10T13:06:57;22.50;60.30
8463;DHT22;4268;52.506;13.462;2023-05-10T13:09:24;22.60;60.00
8463;DHT22;4268;52.506;13.462;2023-05-10T13:11:50;22.60;59.90
8463;DHT22;4268;52.506;13.462;2023-05-10T13:14:16;22.60;57.50
8463;DHT22;4268;52.506;13.462;2023-05-10T13:16:42;22.60;56.80
8463;DHT22;4268;52.506;13.462;2023-05-10T13:19:07;22.60;57.00
8463;DHT22;4268;52.506;13.462;2023-05-10T13:21:32;22.50;57.00
8463;DHT22;4268;52.506;13.462;2023-05-10T13:23:58;22.50;57.20
8463;DHT22;4268;52.506;13.462;2023-05-10T13:26:23;22.40;57.60
8463;DHT22;4268;52.506;13.462;2023-05-10T13:28:50;22.60;57.40
8463;DHT22;4268;52.506;13.462;2023-05-10T13:31:16;22.70;58.40
8463;DHT22;4268;52.506;13.462;2023-05-10T13:33:42;22.60;58.20
8463;DHT22;4268;52.506;13.462;2023-05-10T13:36:07;22.60;58.20
8463;DHT22;4268;52.506;13.462;2023-05-10T13:38:33;22.60;58.40
8463;DHT22;4268;52.506;13.462;2023-05-10T13:40:58;22.50;58.10
8463;DHT22;4268;52.506;13.462;2023-05-10T13:43:24;22.60;57.20
8463;DHT22;4268;52.506;13.462;2023-05-10T13:45:49;22.50;56.90
8463;DHT22;4268;52.506;13.462;2023-05-10T13:48:15;22.50;57.10
8463;DHT22;4268;52.506;13.462;2023-05-10T13:50:42;22.50;57.30
8463;DHT22;4268;52.506;13.462;2023-05-10T13:53:08;22.60;58.00
8463;DHT22;4268;52.506;13.462;2023-05-10T13:55:33;22.60;57.70
8463;DHT22;4268;52.506;13.462;2023-05-10T13:57:59;22.60;57.20
8463;DHT22;4268;52.506;13.462;2023-05-10T14:00:24;22.60;57.10
8463;DHT22;4268;52.506;13.462;2023-05-10T14:02:50;22.70;56.80
8463;DHT22;4268;52.506;13.462;2023-05-10T14:05:15;22.80;57.10
8463;DHT22;4268;52.506;13.462;2023-05-10T14:07:41;22.90;56.80
8463;DHT22;4268;52.506;13.462;2023-05-10T14:10:06;23.00;56.50
8463;DHT22;4268;52.506;13.462;2023-05-10T14:12:32;23.00;56.60
8463;DHT22;4268;52.506;13.462;2023-05-10T14:14:57;23.00;56.60
8463;DHT22;4268;52.506;13.462;2023-05-10T14:17:23;23.00;56.60
8463;DHT22;4268;52.506;13.462;2023-05-10T14:19:48;23.00;56.50
8463;DHT22;4268;52.506;13.462;2023-05-10T14:22:14;23.00;56.20
8463;DHT22;4268;52.506;13.462;2023-05-10T14:24:39;23.10;56.10
8463;DHT22;4268;52.506;13.462;2023-05-10T14:27:05;23.20;56.20
8463;DHT22;4268;52.506;13.462;2023-05-10T14:29:31;23.20;56.50
8463;DHT22;4268;52.506;13.462;2023-05-10T14:31:56;23.20;57.60
8463;DHT22;4268;52.506;13.462;2023-05-10T14:34:22;23.10;56.70
8463;DHT22;4268;52.506;13.462;2023-05-10T14:36:47;23.00;55.60
8463;DHT22;4268;52.506;13.462;2023-05-10T14:39:13;23.00;55.70
8463;DHT22;4268;52.506;13.462;2023-05-10T14:41:39;22.90;54.60
8463;DHT22;4268;52.506;13.462;2023-05-10T14:44:06;22.80;54.90
8463;DHT22;4268;52.506;13.462;2023-05-10T14:46:32;22.60;55.10
8463;DHT22;4268;52.506;13.462;2023-05-10T14:48:57;22.60;55.50
8463;DHT22;4268;52.506;13.462;2023-05-10T14:51:23;22.60;55.70
8463;DHT22;4268;52.506;13.462;2023-05-10T14:53:48;22.60;55.90
8463;DHT22;4268;52.506;13.462;2023-05-10T14:56:16;22.70;56.80
8463;DHT22;4268;52.506;13.462;2023-05-10T14:58:42;22.70;56.40
8463;DHT22;4268;52.506;13.462;2023-05-10T15:01:07;22.90;56.50
8463;DHT22;4268;52.506;13.462;2023-05-10T15:03:33;22.90;55.90
8463;DHT22;4268;52.506;13.462;2023-05-10T15:05:58;23.00;56.10
8463;DHT22;4268;52.506;13.462;2023-05-10T15:08:24;23.10;55.80
8463;DHT22;4268;52.506;13.462;2023-05-10T15:10:50;22.90;55.50
8463;DHT22;4268;52.506;13.462;2023-05-10T15:13:16;22.90;55.70
8463;DHT22;4268;52.506;13.462;2023-05-10T15:15:41;22.80;56.20
8463;DHT22;4268;52.506;13.462;2023-05-10T15:18:11;22.70;56.30
8463;DHT22;4268;52.506;13.462;2023-05-10T15:20:37;22.60;56.00
8463;DHT22;4268;52.506;13.462;2023-05-10T15:23:02;22.60;55.50
8463;DHT22;4268;52.506;13.462;2023-05-10T15:25:28;22.50;55.30
8463;DHT22;4268;52.506;13.462;2023-05-10T15:27:54;22.40;54.90
8463;DHT22;4268;52.506;13.462;2023-05-10T15:30:19;22.30;55.20
8463;DHT22;4268;52.506;13.462;2023-05-10T15:32:45;22.30;56.00
8463;DHT22;4268;52.506;13.462;2023-05-10T15:35:10;22.10;56.30
8463;DHT22;4268;52.506;13.462;2023-05-10T15:37:37;22.10;57.30
8463;DHT22;4268;52.506;13.462;2023-05-10T15:40:03;22.00;57.50
8463;DHT22;4268;52.506;13.462;2023-05-10T15:42:29;22.00;58.40
8463;DHT22;4268;52.506;13.462;2023-05-10T15:44:56;22.00;57.90
8463;DHT22;4268;52.506;13.462;2023-05-10T15:47:21;22.00;58.10
8463;DHT22;4268;52.506;13.462;2023-05-10T15:49:47;21.90;58.30
8463;DHT22;4268;52.506;13.462;2023-05-10T15:52:12;21.90;58.20
8463;DHT22;4268;52.506;13.462;2023-05-10T15:54:38;21.90;58.30
8463;DHT22;4268;52.506;13.462;2023-05-10T15:57:04;21.90;58.20
8463;DHT22;4268;52.506;13.462;2023-05-10T15:59:29;22.00;58.40
8463;DHT22;4268;52.506;13.462;2023-05-10T16:01:55;22.20;58.50
8463;DHT22;4268;52.506;13.462;2023-05-10T16:04:22;22.20;58.80
8463;DHT22;4268;52.506;13.462;2023-05-10T16:06:47;22.30;58.50
8463;DHT22;4268;52.506;13.462;2023-05-10T16:09:13;22.40;58.30